Time;durP1;ratioP1;P1;durP2;ratioP2;P2;SDS_P1;SDS_P2;PMS_P1;PMS_P2;Temp;Humidity;BMP_temperature;BMP_pressure;BME280_temperature;BME280_humidity;BME280_pressure;Samples;Min_cycle;Max_cycle;Signal;HPM_P1;HPM_P2
2022/01/02 00:01:45;;;;;;;12.52;7.53;;;11.90;99.90;;;;;;5002090;28;20077;-71
2022/01/02 00:04:20;;;;;;;12.45;8.48;;;11.90;99.90;;;;;;5005054;28;20053;-70
2022/01/02 00:06:53;;;;;;;12.32;8.25;;;11.90;99.90;;;;;;5006770;28;20122;-71
2022/01/02 00:09:36;;;;;;;11.98;7.65;;;11.90;99.90;;;;;;5005906;28;20390;-71
2022/01/02 00:12:05;;;;;;;11.82;7.25;;;11.90;99.90;;;;;;5006609;28;20034;-71
2022/01/02 00:14:37;;;;;;;13.73;7.72;;;11.80;99.90;;;;;;5010946;28;20041;-71
2022/01/02 00:17:05;;;;;;;11.13;8.13;;;11.80;99.90;;;;;;4998113;28;20104;-71
2022/01/02 00:19:32;;;;;;;10.75;7.78;;;11.80;99.90;;;;;;5014748;28;20050;-71
2022/01/02 00:22:01;;;;;;;10.52;7.65;;;11.80;99.90;;;;;;5011646;28;20849;-71
2022/01/02 00:24:28;;;;;;;10.15;7.65;;;11.80;99.90;;;;;;5032257;28;20081;-71
2022/01/02 00:26:55;;;;;;;13.48;8.45;;;11.80;99.90;;;;;;5009986;28;20053;-71
2022/01/02 00:29:22;;;;;;;14.98;8.25;;;11.70;99.90;;;;;;5004038;28;20038;-72
2022/01/02 00:31:48;;;;;;;10.38;7.68;;;11.80;99.90;;;;;;5016415;28;20049;-71
2022/01/02 00:34:15;;;;;;;11.75;7.80;;;11.70;99.90;;;;;;5006808;28;20088;-71
2022/01/02 00:36:41;;;;;;;10.60;7.38;;;11.80;99.90;;;;;;5005872;28;20163;-72
2022/01/02 00:39:07;;;;;;;13.68;7.72;;;11.70;99.90;;;;;;5016323;28;20546;-71
2022/01/02 00:41:47;;;;;;;12.50;7.70;;;11.70;99.90;;;;;;5030213;28;20546;-71
2022/01/02 00:44:38;;;;;;;11.73;8.13;;;11.70;99.90;;;;;;5010778;28;20096;-72
2022/01/02 00:47:08;;;;;;;11.23;7.88;;;11.70;99.90;;;;;;5005297;28;20067;-70
2022/01/02 00:49:39;;;;;;;12.35;8.00;;;11.70;99.90;;;;;;5020316;28;20049;-71
2022/01/02 00:52:12;;;;;;;10.75;7.82;;;11.70;99.90;;;;;;5015660;28;20136;-71
2022/01/02 00:54:43;;;;;;;13.13;8.15;;;11.70;99.90;;;;;;5008261;28;20041;-71
2022/01/02 00:57:17;;;;;;;10.93;7.68;;;11.70;99.90;;;;;;5004388;28;20053;-71
2022/01/02 00:59:54;;;;;;;11.40;7.75;;;11.60;99.90;;;;;;5003875;28;20049;-71
2022/01/02 01:02:32;;;;;;;10.80;7.43;;;11.60;99.90;;;;;;5002189;28;20053;-71
2022/01/02 01:05:00;;;;;;;12.50;7.90;;;11.60;99.90;;;;;;5009275;28;20053;-71
2022/01/02 01:07:26;;;;;;;11.82;8.00;;;11.60;99.90;;;;;;5025884;28;20041;-71
2022/01/02 01:09:55;;;;;;;14.00;7.88;;;11.60;99.90;;;;;;5011667;28;20052;-71
2022/01/02 01:12:20;;;;;;;11.32;7.45;;;11.70;99.90;;;;;;5000501;28;20600;-70
2022/01/02 01:14:47;;;;;;;12.07;7.55;;;11.70;99.90;;;;;;5012838;28;20056;-71
2022/01/02 01:17:14;;;;;;;12.23;8.10;;;11.60;99.90;;;;;;5010792;28;20041;-71
2022/01/02 01:19:40;;;;;;;12.40;8.25;;;11.60;99.90;;;;;;5008287;28;20497;-71
2022/01/02 01:22:05;;;;;;;12.88;8.32;;;11.60;99.90;;;;;;5010295;28;20074;-71
2022/01/02 01:24:34;;;;;;;12.85;8.00;;;11.60;99.90;;;;;;5008879;28;20045;-71
2022/01/02 01:27:01;;;;;;;12.85;8.15;;;11.60;99.90;;;;;;5009768;28;20082;-71
2022/01/02 01:29:27;;;;;;;12.20;7.82;;;11.60;99.90;;;;;;5008348;28;20058;-71
2022/01/02 01:31:53;;;;;;;13.10;8.45;;;11.60;99.90;;;;;;5006814;28;20052;-71
2022/01/02 01:34:18;;;;;;;12.70;7.85;;;11.60;99.90;;;;;;5016122;28;20054;-71
2022/01/02 01:36:44;;;;;;;13.38;8.20;;;11.60;99.90;;;;;;5008183;28;20547;-71
2022/01/02 01:39:09;;;;;;;11.05;7.80;;;11.60;99.90;;;;;;5009960;28;20137;-71
2022/01/02 01:41:38;;;;;;;12.07;7.57;;;11.60;99.90;;;;;;5008292;28;20409;-70
2022/01/02 01:45:03;;;;;;;11.15;7.53;;;11.60;99.90;;;;;;5011565;28;20428;-71
2022/01/02 01:46:55;;;;;;;13.52;7.45;;;11.60;99.90;;;;;;4996886;28;20517;-71
2022/01/02 01:49:27;;;;;;;13.63;7.95;;;11.60;99.90;;;;;;5014925;28;20037;-71
2022/01/02 01:51:54;;;;;;;13.55;7.60;;;11.50;99.90;;;;;;5009451;28;20054;-71
2022/01/02 01:54:20;;;;;;;13.47;8.60;;;11.50;99.90;;;;;;5011447;28;20481;-71
2022/01/02 01:56:47;;;;;;;13.13;8.13;;;11.50;99.90;;;;;;5009826;28;20060;-71
2022/01/02 01:59:15;;;;;;;13.07;8.13;;;11.50;99.90;;;;;;5017678;28;20096;-71
2022/01/02 02:01:40;;;;;;;15.57;8.55;;;11.50;99.90;;;;;;5008751;28;20095;-71
2022/01/02 02:04:06;;;;;;;13.65;8.43;;;11.50;99.90;;;;;;5013739;28;20053;-70
2022/01/02 02:06:34;;;;;;;12.73;8.13;;;11.50;99.90;;;;;;5007100;28;20069;-71
2022/01/02 02:09:00;;;;;;;14.98;9.25;;;11.50;99.90;;;;;;5009311;28;20050;-70
2022/01/02 02:11:28;;;;;;;14.65;8.57;;;11.50;99.90;;;;;;5012536;28;20125;-71
2022/01/02 02:13:55;;;;;;;15.10;8.15;;;11.50;99.90;;;;;;5013281;28;20065;-71
2022/01/02 02:16:21;;;;;;;15.00;8.20;;;11.50;99.90;;;;;;5007016;28;20490;-71
2022/01/02 02:18:47;;;;;;;12.77;8.10;;;11.50;99.90;;;;;;5011468;28;20084;-71
2022/01/02 02:21:12;;;;;;;13.40;8.50;;;11.50;99.90;;;;;;5008129;28;20057;-70
2022/01/02 02:23:38;;;;;;;13.63;8.13;;;11.50;99.90;;;;;;5009281;28;20026;-70
2022/01/02 02:26:04;;;;;;;15.45;8.70;;;11.50;99.90;;;;;;5008193;28;20389;-71
2022/01/02 02:28:30;;;;;;;15.90;8.50;;;11.50;99.90;;;;;;5001285;28;20504;-71
2022/01/02 02:30:56;;;;;;;14.90;9.98;;;11.50;99.90;;;;;;4995279;28;20050;-70
2022/01/02 02:33:21;;;;;;;17.95;10.02;;;11.50;99.90;;;;;;5008353;28;20069;-71
2022/01/02 02:35:48;;;;;;;20.08;9.93;;;11.50;99.90;;;;;;4995334;28;20598;-71
2022/01/02 02:38:16;;;;;;;15.63;9.60;;;11.50;99.90;;;;;;5011507;28;20042;-71
2022/01/02 02:40:42;;;;;;;20.33;10.35;;;11.50;99.90;;;;;;5014069;28;20481;-70
2022/01/02 02:51:30;;;;;;;16.23;9.63;;;11.50;99.90;;;;;;5000533;28;20061;-71
2022/01/02 02:53:55;;;;;;;14.70;8.88;;;11.50;99.90;;;;;;5007693;28;20069;-72
2022/01/02 02:56:40;;;;;;;17.00;9.73;;;11.50;99.90;;;;;;5015565;28;20132;-71
2022/01/02 02:59:06;;;;;;;16.92;9.48;;;11.50;99.90;;;;;;5015616;28;20048;-71
2022/01/02 03:01:32;;;;;;;14.65;9.80;;;11.40;99.90;;;;;;5023017;28;20171;-71
2022/01/02 03:03:57;;;;;;;16.30;9.82;;;11.40;99.90;;;;;;5007260;28;20101;-72
2022/01/02 03:06:24;;;;;;;15.15;9.13;;;11.40;99.90;;;;;;5006671;28;20052;-71
2022/01/02 03:08:50;;;;;;;13.80;8.73;;;11.40;99.90;;;;;;5008363;28;20125;-71
2022/01/02 03:11:19;;;;;;;16.63;9.07;;;11.40;99.90;;;;;;5007420;28;20057;-70
2022/01/02 03:13:47;;;;;;;13.43;8.38;;;11.40;99.90;;;;;;5009840;28;20299;-71
2022/01/02 03:16:13;;;;;;;17.33;9.15;;;11.40;99.90;;;;;;5008021;28;20065;-71
2022/01/02 03:18:39;;;;;;;14.15;8.75;;;11.40;99.90;;;;;;5006099;28;20046;-71
2022/01/02 03:21:05;;;;;;;15.43;8.93;;;11.40;99.90;;;;;;5006111;28;20044;-71
2022/01/02 03:23:31;;;;;;;15.40;8.75;;;11.40;99.90;;;;;;5006486;28;20042;-71
2022/01/02 03:25:57;;;;;;;16.38;9.32;;;11.40;99.90;;;;;;5009037;28;20057;-71
2022/01/02 03:28:23;;;;;;;14.98;8.48;;;11.40;99.90;;;;;;5005880;28;20030;-71
2022/01/02 03:30:49;;;;;;;14.23;8.35;;;11.40;99.90;;;;;;5011049;28;20105;-71
2022/01/02 03:33:15;;;;;;;14.35;9.50;;;11.40;99.90;;;;;;5006953;28;20072;-71
2022/01/02 03:35:41;;;;;;;16.35;9.25;;;11.40;99.90;;;;;;5012259;28;20140;-71
2022/01/02 03:38:07;;;;;;;15.20;8.65;;;11.40;99.90;;;;;;5006056;28;20544;-70
2022/01/02 03:40:33;;;;;;;18.55;9.90;;;11.40;99.90;;;;;;5000611;28;20046;-71
2022/01/02 03:42:58;;;;;;;15.65;9.05;;;11.40;99.90;;;;;;5006704;28;20064;-72
2022/01/02 03:45:24;;;;;;;15.93;9.00;;;11.40;99.90;;;;;;5019966;28;20049;-72
2022/01/02 03:47:50;;;;;;;16.45;9.05;;;11.40;99.90;;;;;;5024195;28;20392;-71
2022/01/02 03:50:16;;;;;;;15.25;8.55;;;11.50;99.90;;;;;;5012413;28;20045;-71
2022/01/02 03:52:41;;;;;;;15.30;8.80;;;11.50;99.90;;;;;;5005745;28;20038;-71
2022/01/02 03:55:08;;;;;;;16.23;7.97;;;11.50;99.90;;;;;;5010597;28;20485;-71
2022/01/02 03:57:34;;;;;;;13.27;8.70;;;11.50;99.90;;;;;;5003228;28;20489;-71
2022/01/02 04:00:00;;;;;;;15.43;7.85;;;11.50;99.90;;;;;;5003941;28;20045;-71
2022/01/02 04:02:25;;;;;;;21.08;8.15;;;11.50;99.90;;;;;;5004930;28;20066;-71
2022/01/02 04:04:51;;;;;;;15.25;7.85;;;11.50;99.90;;;;;;5022959;28;20102;-71
2022/01/02 04:07:17;;;;;;;12.88;7.75;;;11.50;99.90;;;;;;5005264;28;20049;-71
2022/01/02 04:09:42;;;;;;;13.93;7.40;;;11.50;99.90;;;;;;5005126;28;20050;-71
2022/01/02 04:12:08;;;;;;;17.40;7.88;;;11.50;99.90;;;;;;5005723;28;20064;-71
2022/01/02 04:14:34;;;;;;;16.90;7.53;;;11.50;99.90;;;;;;5008107;28;20054;-71
2022/01/02 04:17:00;;;;;;;17.60;7.97;;;11.50;99.90;;;;;;4969780;28;20051;-71
2022/01/02 04:19:26;;;;;;;17.15;7.38;;;11.50;99.90;;;;;;4972220;28;20486;-71
2022/01/02 04:21:51;;;;;;;18.40;8.13;;;11.50;99.90;;;;;;4969206;28;20042;-71
2022/01/02 04:24:17;;;;;;;13.32;7.70;;;11.40;99.90;;;;;;4969716;28;20057;-70
2022/01/02 04:26:43;;;;;;;16.52;7.72;;;11.50;99.90;;;;;;4969855;28;20105;-71
2022/01/02 04:29:09;;;;;;;14.18;7.72;;;11.50;99.90;;;;;;4971865;28;20042;-71
2022/01/02 04:31:35;;;;;;;16.67;7.47;;;11.50;99.90;;;;;;4960332;28;20074;-71
2022/01/02 04:34:01;;;;;;;14.15;7.63;;;11.50;99.90;;;;;;4966608;28;20073;-71
2022/01/02 04:36:27;;;;;;;14.38;7.43;;;11.50;99.90;;;;;;4969929;28;20053;-71
2022/01/02 04:38:52;;;;;;;16.67;7.60;;;11.50;99.90;;;;;;4978710;28;20052;-71
2022/01/02 04:41:18;;;;;;;16.75;7.53;;;11.50;99.90;;;;;;4999129;28;20046;-70
2022/01/02 04:43:44;;;;;;;15.57;7.20;;;11.50;99.90;;;;;;4991387;28;20065;-71
2022/01/02 04:46:09;;;;;;;16.90;7.28;;;11.50;99.90;;;;;;4977042;28;20050;-71
2022/01/02 04:48:35;;;;;;;21.08;6.97;;;11.50;99.90;;;;;;4981302;28;20034;-71
2022/01/02 04:51:00;;;;;;;15.23;7.32;;;11.50;99.90;;;;;;4992427;28;20402;-71
2022/01/02 04:53:26;;;;;;;20.55;7.00;;;11.50;99.90;;;;;;4975124;28;20053;-71
2022/01/02 04:55:52;;;;;;;15.88;7.00;;;11.60;99.90;;;;;;4977746;28;20113;-71
2022/01/02 04:58:17;;;;;;;14.70;6.65;;;11.60;99.90;;;;;;4973599;28;20074;-70
2022/01/02 05:00:44;;;;;;;15.48;7.00;;;11.60;99.90;;;;;;4974932;28;20054;-71
2022/01/02 05:03:09;;;;;;;15.38;7.13;;;11.60;99.90;;;;;;4970551;28;20042;-71
2022/01/02 05:05:35;;;;;;;15.02;6.90;;;11.60;99.90;;;;;;4976241;28;20109;-70
2022/01/02 05:08:01;;;;;;;16.83;6.60;;;11.60;99.90;;;;;;4973728;28;20078;-72
2022/01/02 05:10:27;;;;;;;13.93;6.07;;;11.60;99.90;;;;;;4971914;28;20041;-71
2022/01/02 05:12:52;;;;;;;17.27;6.47;;;11.60;99.90;;;;;;4972288;28;20042;-71
2022/01/02 05:15:18;;;;;;;14.85;6.43;;;11.60;99.90;;;;;;4985161;28;20053;-71
2022/01/02 05:17:44;;;;;;;12.43;6.32;;;11.70;99.90;;;;;;5010988;28;20494;-71
2022/01/02 05:20:10;;;;;;;17.52;5.97;;;11.70;99.90;;;;;;5002452;28;20133;-72
2022/01/02 05:22:35;;;;;;;17.27;6.22;;;11.70;99.90;;;;;;5009462;28;20132;-72
2022/01/02 05:25:01;;;;;;;15.38;6.63;;;11.70;99.90;;;;;;5009294;28;20472;-71
2022/01/02 05:27:27;;;;;;;15.30;6.18;;;11.70;99.90;;;;;;5008615;28;20554;-71
2022/01/02 05:29:52;;;;;;;19.60;6.70;;;11.70;99.90;;;;;;5009742;28;20409;-72
2022/01/02 05:32:18;;;;;;;16.35;6.45;;;11.70;99.90;;;;;;5008767;28;20042;-71
2022/01/02 05:34:43;;;;;;;14.18;6.25;;;11.70;99.90;;;;;;4995029;28;20061;-71
2022/01/02 05:37:09;;;;;;;16.23;5.93;;;11.70;99.90;;;;;;5007938;28;20038;-72
2022/01/02 05:39:35;;;;;;;13.45;5.72;;;11.80;99.90;;;;;;5007398;28;20057;-71
2022/01/02 05:42:00;;;;;;;14.50;6.05;;;11.80;99.90;;;;;;5009379;28;20454;-72
2022/01/02 05:44:26;;;;;;;13.10;5.70;;;11.80;99.90;;;;;;5017830;28;20049;-72
2022/01/02 05:46:53;;;;;;;16.58;5.95;;;11.80;99.90;;;;;;4992668;28;20118;-72
2022/01/02 05:49:19;;;;;;;16.05;5.95;;;11.80;99.90;;;;;;5002960;28;20486;-72
2022/01/02 05:51:45;;;;;;;15.52;5.43;;;11.80;99.90;;;;;;5008902;28;20060;-72
2022/01/02 05:54:10;;;;;;;15.75;5.15;;;11.80;99.90;;;;;;5009601;28;20044;-71
2022/01/02 05:56:36;;;;;;;14.57;5.30;;;11.80;99.90;;;;;;5012835;28;20045;-72
2022/01/02 05:59:02;;;;;;;17.55;5.53;;;11.90;99.90;;;;;;5013775;28;20038;-72
2022/01/02 06:01:27;;;;;;;13.73;5.32;;;11.90;99.90;;;;;;5013029;28;20136;-72
2022/01/02 06:03:53;;;;;;;15.88;4.95;;;11.90;99.90;;;;;;5010228;28;20052;-72
2022/01/02 06:06:18;;;;;;;12.48;5.15;;;11.90;99.90;;;;;;5004475;28;20053;-71
2022/01/02 06:08:44;;;;;;;16.23;5.50;;;12.00;99.90;;;;;;5012216;28;20104;-72
2022/01/02 06:11:10;;;;;;;12.73;5.53;;;12.00;99.90;;;;;;5012917;28;20049;-72
2022/01/02 06:13:36;;;;;;;16.25;5.55;;;12.00;99.90;;;;;;5008221;28;20802;-71
2022/01/02 06:16:01;;;;;;;13.85;4.78;;;12.00;99.90;;;;;;5007952;28;20053;-71
2022/01/02 06:18:27;;;;;;;19.02;5.65;;;12.00;99.90;;;;;;5012866;28;20091;-72
2022/01/02 06:20:53;;;;;;;13.05;5.38;;;12.00;99.90;;;;;;5011967;28;20269;-71
2022/01/02 06:23:19;;;;;;;11.18;4.88;;;12.00;99.90;;;;;;5009575;28;20077;-71
2022/01/02 06:25:45;;;;;;;14.05;5.25;;;12.10;99.90;;;;;;5007256;28;20070;-72
2022/01/02 06:28:12;;;;;;;12.27;5.63;;;12.00;99.90;;;;;;5009219;28;20045;-72
2022/01/02 06:30:38;;;;;;;14.55;6.13;;;12.00;99.90;;;;;;5008986;28;20053;-72
2022/01/02 06:33:03;;;;;;;18.23;6.35;;;12.00;99.90;;;;;;5009500;28;20617;-71
2022/01/02 06:35:34;;;;;;;17.90;7.07;;;12.00;99.90;;;;;;5007305;28;20080;-71
2022/01/02 06:38:13;;;;;;;16.98;6.85;;;11.90;99.90;;;;;;5008078;28;20050;-71
2022/01/02 06:40:39;;;;;;;19.48;6.43;;;12.00;99.90;;;;;;4995440;28;20050;-72
2022/01/02 06:43:05;;;;;;;16.45;6.07;;;11.90;99.90;;;;;;5001167;28;20069;-71
2022/01/02 06:45:31;;;;;;;17.75;6.60;;;11.90;99.90;;;;;;5008247;28;20077;-71
2022/01/02 06:47:56;;;;;;;17.17;6.65;;;11.90;99.90;;;;;;5006719;28;20046;-73
2022/01/02 06:50:22;;;;;;;12.13;6.00;;;11.90;99.90;;;;;;5008000;28;20452;-71
2022/01/02 06:52:47;;;;;;;13.27;5.65;;;11.90;99.90;;;;;;4994649;28;20452;-71
2022/01/02 06:55:13;;;;;;;17.27;7.03;;;11.90;99.90;;;;;;5009692;28;20713;-71
2022/01/02 06:57:39;;;;;;;15.57;6.32;;;11.90;99.90;;;;;;5005855;28;20042;-72
2022/01/02 07:00:05;;;;;;;12.25;5.85;;;11.90;99.90;;;;;;5009162;28;20570;-69
2022/01/02 07:02:31;;;;;;;12.25;6.28;;;11.90;99.90;;;;;;5005495;28;20041;-71
2022/01/02 07:04:57;;;;;;;15.98;6.78;;;11.80;99.90;;;;;;5009643;28;20104;-71
2022/01/02 07:07:22;;;;;;;13.15;6.35;;;11.80;99.90;;;;;;5008352;28;20104;-72
2022/01/02 07:09:48;;;;;;;15.15;6.55;;;11.80;99.90;;;;;;5008470;28;20250;-72
2022/01/02 07:12:13;;;;;;;10.85;6.20;;;11.80;99.90;;;;;;5018803;28;20041;-71
2022/01/02 07:14:39;;;;;;;12.32;5.93;;;11.80;99.90;;;;;;5016225;28;20153;-72
2022/01/02 07:17:05;;;;;;;11.82;6.00;;;11.80;99.90;;;;;;5011684;28;20459;-71
2022/01/02 07:19:30;;;;;;;15.90;6.00;;;11.80;99.90;;;;;;5006924;28;20044;-71
2022/01/02 07:21:58;;;;;;;14.13;6.22;;;11.80;99.90;;;;;;5007953;28;20828;-71
2022/01/02 07:24:24;;;;;;;9.80;5.40;;;11.80;99.90;;;;;;5008839;28;20045;-71
2022/01/02 07:26:49;;;;;;;12.57;5.65;;;11.80;99.90;;;;;;5008798;28;20049;-71
2022/01/02 07:29:15;;;;;;;13.55;6.60;;;11.90;99.90;;;;;;5008423;28;20132;-71
2022/01/02 07:31:42;;;;;;;10.70;5.78;;;11.80;99.90;;;;;;5005970;28;20054;-71
2022/01/02 07:34:08;;;;;;;12.65;5.18;;;11.80;99.90;;;;;;5010922;28;20050;-71
2022/01/02 07:36:34;;;;;;;15.52;6.15;;;11.80;99.90;;;;;;5007585;28;20048;-71
2022/01/02 07:38:59;;;;;;;16.17;5.80;;;11.80;99.90;;;;;;5005973;28;20139;-71
2022/01/02 07:41:25;;;;;;;11.88;5.65;;;11.80;99.90;;;;;;5010086;28;20144;-71
2022/01/02 07:43:51;;;;;;;16.17;6.35;;;11.80;99.90;;;;;;5013671;28;20503;-71
2022/01/02 07:46:17;;;;;;;14.65;5.95;;;11.80;99.90;;;;;;5008794;28;20128;-71
2022/01/02 07:48:42;;;;;;;12.43;6.03;;;11.80;99.90;;;;;;5008304;28;20036;-71
2022/01/02 07:51:08;;;;;;;13.88;5.88;;;11.80;99.90;;;;;;5008493;28;20041;-72
2022/01/02 07:53:34;;;;;;;12.60;5.70;;;11.90;99.90;;;;;;5011719;28;20183;-72
2022/01/02 07:56:00;;;;;;;10.50;5.78;;;11.80;99.90;;;;;;5006568;28;20095;-72
2022/01/02 07:58:26;;;;;;;13.80;5.80;;;11.90;99.90;;;;;;5007960;28;20051;-69
2022/01/02 08:00:51;;;;;;;11.18;5.55;;;11.80;99.90;;;;;;5002564;28;20038;-70
2022/01/02 08:03:17;;;;;;;11.05;5.28;;;11.80;99.90;;;;;;5005736;28;20050;-72
2022/01/02 08:05:43;;;;;;;15.02;5.95;;;11.80;99.90;;;;;;5006711;28;20382;-71
2022/01/02 08:08:09;;;;;;;9.63;5.65;;;11.80;99.90;;;;;;5006951;28;20440;-71
2022/01/02 08:10:37;;;;;;;13.52;5.50;;;11.80;99.90;;;;;;5013845;28;20057;-74
2022/01/02 08:13:02;;;;;;;14.82;5.95;;;11.80;99.90;;;;;;5012735;28;20069;-75
2022/01/02 08:15:28;;;;;;;11.85;5.75;;;11.80;99.90;;;;;;5011431;28;20578;-74
2022/01/02 08:17:54;;;;;;;13.98;5.60;;;11.80;99.90;;;;;;5011200;28;20063;-74
2022/01/02 08:20:19;;;;;;;11.90;5.72;;;11.80;99.90;;;;;;5012405;28;20397;-73
2022/01/02 08:22:45;;;;;;;11.30;5.03;;;11.80;99.90;;;;;;5022235;28;20076;-73
2022/01/02 08:25:11;;;;;;;13.10;5.40;;;11.80;99.90;;;;;;4994652;28;20057;-74
2022/01/02 08:27:36;;;;;;;10.95;5.10;;;11.80;99.90;;;;;;4997230;28;20038;-74
2022/01/02 08:30:03;;;;;;;12.90;5.55;;;11.80;99.90;;;;;;5010794;28;20037;-75
2022/01/02 08:32:29;;;;;;;12.93;5.40;;;11.80;99.90;;;;;;5011670;28;20133;-74
2022/01/02 08:34:54;;;;;;;13.35;6.13;;;11.80;99.90;;;;;;5009902;28;20124;-74
2022/01/02 08:37:20;;;;;;;12.40;5.93;;;11.80;99.90;;;;;;5010874;28;20050;-73
2022/01/02 08:39:46;;;;;;;12.63;5.88;;;11.80;99.90;;;;;;5009548;28;20133;-74
2022/01/02 08:42:13;;;;;;;17.00;5.90;;;11.80;99.90;;;;;;5011325;28;20054;-73
2022/01/02 08:44:39;;;;;;;14.30;6.35;;;11.80;99.90;;;;;;5008795;28;20077;-74
2022/01/02 08:47:06;;;;;;;13.57;6.90;;;11.80;99.90;;;;;;5021504;28;20484;-74
2022/01/02 08:49:32;;;;;;;11.80;5.38;;;11.80;99.90;;;;;;5011580;28;20120;-72
2022/01/02 08:51:58;;;;;;;12.55;5.40;;;11.80;99.90;;;;;;5010358;28;20076;-73
2022/01/02 08:54:24;;;;;;;10.05;4.97;;;11.80;99.90;;;;;;5003842;28;20077;-74
2022/01/02 08:56:50;;;;;;;13.07;5.45;;;11.80;99.90;;;;;;5010970;28;20060;-72
2022/01/02 08:59:17;;;;;;;15.00;5.60;;;11.80;99.90;;;;;;5016890;28;20077;-74
2022/01/02 09:01:43;;;;;;;12.60;5.05;;;11.80;99.90;;;;;;5013397;28;20038;-74
2022/01/02 09:04:09;;;;;;;10.82;5.13;;;11.80;99.90;;;;;;5009831;28;20404;-74
2022/01/02 09:06:34;;;;;;;9.38;5.00;;;11.80;99.90;;;;;;5012580;28;20038;-74
2022/01/02 09:09:00;;;;;;;12.43;5.05;;;11.80;99.90;;;;;;5010589;28;20050;-73
2022/01/02 09:11:26;;;;;;;11.10;5.57;;;11.80;99.90;;;;;;5011031;28;20468;-74
2022/01/02 09:13:52;;;;;;;10.90;5.60;;;11.80;99.90;;;;;;5006292;28;20054;-73
2022/01/02 09:16:17;;;;;;;12.25;5.50;;;11.80;99.90;;;;;;5011341;28;20209;-74
2022/01/02 09:18:43;;;;;;;14.27;5.30;;;11.80;99.90;;;;;;5010391;28;20092;-73
2022/01/02 09:21:09;;;;;;;12.80;5.00;;;11.70;99.90;;;;;;5010244;28;20050;-73
2022/01/02 09:23:36;;;;;;;11.82;5.13;;;11.70;99.90;;;;;;5010228;28;20037;-74
2022/01/02 09:26:01;;;;;;;13.43;5.38;;;11.70;99.90;;;;;;5011211;28;20081;-74
2022/01/02 09:28:27;;;;;;;12.73;5.20;;;11.80;99.90;;;;;;5009557;28;20073;-74
2022/01/02 09:30:53;;;;;;;12.05;5.45;;;11.70;99.90;;;;;;5009737;28;20050;-73
2022/01/02 09:33:18;;;;;;;10.50;5.32;;;11.70;99.90;;;;;;5013024;28;20041;-72
2022/01/02 09:35:45;;;;;;;20.02;9.25;;;11.80;99.90;;;;;;5013479;28;20129;-73
2022/01/02 09:38:11;;;;;;;15.17;6.53;;;11.70;99.90;;;;;;5009048;28;20172;-72
2022/01/02 09:40:37;;;;;;;10.30;5.18;;;11.70;99.90;;;;;;5009084;28;20321;-73
2022/01/02 09:43:04;;;;;;;12.73;5.50;;;11.70;99.90;;;;;;5009150;28;20053;-73
2022/01/02 09:45:35;;;;;;;8.15;4.63;;;11.70;99.90;;;;;;5009431;28;20058;-73
2022/01/02 09:48:02;;;;;;;12.57;4.95;;;11.80;99.90;;;;;;5016129;28;20531;-74
2022/01/02 09:50:28;;;;;;;13.18;5.50;;;11.80;99.90;;;;;;5010854;28;20077;-75
2022/01/02 09:52:54;;;;;;;11.50;5.10;;;11.80;99.90;;;;;;5006935;28;20054;-73
2022/01/02 09:55:20;;;;;;;11.85;5.07;;;11.80;99.90;;;;;;5008831;28;20061;-73
2022/01/02 09:57:48;;;;;;;14.23;5.45;;;11.80;99.90;;;;;;5009179;28;20030;-73
2022/01/02 10:00:15;;;;;;;13.13;5.10;;;11.80;99.90;;;;;;5009554;28;20128;-73
2022/01/02 10:02:55;;;;;;;14.40;5.60;;;11.80;99.90;;;;;;5006268;28;20128;-72
2022/01/02 10:05:24;;;;;;;11.93;5.00;;;11.80;99.90;;;;;;5007961;28;20543;-73
2022/01/02 10:07:54;;;;;;;13.10;5.43;;;11.80;99.90;;;;;;5009478;28;20050;-73
2022/01/02 10:10:20;;;;;;;11.15;5.38;;;11.80;99.90;;;;;;5007913;28;20053;-71
2022/01/02 10:12:46;;;;;;;10.55;5.22;;;11.90;99.90;;;;;;5007560;28;20092;-72
2022/01/02 10:15:13;;;;;;;13.00;5.63;;;11.90;99.90;;;;;;5008136;28;20057;-71
2022/01/02 10:18:08;;;;;;;14.48;5.50;;;11.90;99.90;;;;;;5009001;28;20046;-70
2022/01/02 10:20:34;;;;;;;11.52;5.28;;;11.90;99.90;;;;;;5006321;28;20041;-71
2022/01/02 10:23:23;;;;;;;12.05;5.35;;;11.90;99.90;;;;;;5004391;28;20619;-71
2022/01/02 10:25:51;;;;;;;12.93;5.22;;;11.90;99.90;;;;;;5002841;28;20129;-70
2022/01/02 10:28:31;;;;;;;12.75;5.50;;;12.00;99.90;;;;;;5006261;28;20044;-71
2022/01/02 10:31:03;;;;;;;10.10;5.15;;;12.00;99.90;;;;;;5007504;28;20295;-70
2022/01/02 10:33:45;;;;;;;10.20;5.20;;;12.00;99.90;;;;;;5009069;28;20692;-71
2022/01/02 10:36:11;;;;;;;10.65;5.50;;;12.10;99.90;;;;;;5008082;28;20468;-71
2022/01/02 10:38:37;;;;;;;11.43;5.15;;;12.10;99.90;;;;;;5006708;28;20044;-71
2022/01/02 10:41:03;;;;;;;11.10;5.30;;;12.10;99.90;;;;;;5006286;28;20100;-71
2022/01/02 10:43:31;;;;;;;10.32;5.00;;;12.10;99.90;;;;;;5006897;28;20030;-72
2022/01/02 10:46:06;;;;;;;11.85;5.97;;;12.10;99.90;;;;;;5008218;28;20057;-72
2022/01/02 10:48:40;;;;;;;9.70;5.05;;;12.20;99.90;;;;;;5007001;28;20054;-71
2022/01/02 10:51:14;;;;;;;9.23;5.55;;;12.20;99.90;;;;;;5004076;28;20054;-70
2022/01/02 10:54:01;;;;;;;10.40;5.40;;;12.30;99.90;;;;;;5007022;28;20406;-72
2022/01/02 10:56:30;;;;;;;12.38;5.35;;;12.30;99.90;;;;;;5007504;28;20076;-71
2022/01/02 10:58:58;;;;;;;11.45;5.75;;;12.40;99.90;;;;;;5007046;28;20041;-70
2022/01/02 11:01:24;;;;;;;11.00;5.15;;;12.30;99.90;;;;;;5005695;28;20058;-70
2022/01/02 11:03:51;;;;;;;10.75;5.28;;;12.40;99.90;;;;;;5009238;28;20038;-70
2022/01/02 11:06:29;;;;;;;;;;;12.30;99.90;;;;;;5010305;28;20077;-70
2022/01/02 11:08:58;;;;;;;8.98;5.65;;;12.30;99.90;;;;;;5005557;28;20283;-70
2022/01/02 11:11:24;;;;;;;10.73;5.68;;;12.30;99.90;;;;;;5007022;28;20054;-70
2022/01/02 11:13:50;;;;;;;13.30;6.05;;;12.40;99.90;;;;;;5009011;28;20053;-70
2022/01/02 11:16:16;;;;;;;10.88;5.95;;;12.40;99.90;;;;;;5007693;28;20050;-70
2022/01/02 11:18:43;;;;;;;10.48;5.68;;;12.40;99.90;;;;;;5006986;28;20516;-70
2022/01/02 11:21:11;;;;;;;8.48;5.57;;;12.40;99.90;;;;;;5007658;28;20049;-71
2022/01/02 11:23:47;;;;;;;11.90;5.95;;;12.40;99.90;;;;;;5010475;28;20050;-69
2022/01/02 11:26:29;;;;;;;12.57;6.47;;;12.40;99.90;;;;;;5009343;28;20054;-71
2022/01/02 11:28:57;;;;;;;13.02;6.55;;;12.40;99.90;;;;;;5008566;28;20062;-71
2022/01/02 11:31:31;;;;;;;10.23;5.75;;;12.40;99.90;;;;;;5005707;28;20054;-71
2022/01/02 11:33:58;;;;;;;13.45;6.70;;;12.40;99.90;;;;;;5007470;28;20054;-71
2022/01/02 11:36:33;;;;;;;10.15;6.35;;;12.40;99.90;;;;;;5008799;28;20050;-71
2022/01/02 11:39:10;;;;;;;9.77;6.20;;;12.30;99.90;;;;;;5006835;28;20460;-71
2022/01/02 11:41:41;;;;;;;15.43;6.20;;;12.30;99.90;;;;;;5007351;28;20054;-71
2022/01/02 11:44:21;;;;;;;14.27;6.82;;;12.30;99.90;;;;;;5006700;28;20053;-70
2022/01/02 11:46:57;;;;;;;10.68;5.88;;;12.30;99.90;;;;;;5005744;28;20042;-70
2022/01/02 11:49:38;;;;;;;13.75;6.00;;;12.30;99.90;;;;;;5007711;28;20046;-71
2022/01/02 11:52:12;;;;;;;13.82;6.53;;;12.30;99.90;;;;;;5007635;28;20046;-71
2022/01/02 11:54:46;;;;;;;11.25;6.03;;;12.30;99.90;;;;;;5007347;28;20046;-72
2022/01/02 11:57:11;;;;;;;13.85;5.53;;;12.30;99.90;;;;;;5006404;28;20133;-75
2022/01/02 11:59:40;;;;;;;11.57;6.60;;;12.30;99.90;;;;;;5006148;28;20172;-75
2022/01/02 12:02:29;;;;;;;10.70;5.90;;;12.30;99.90;;;;;;5006334;28;20042;-72
2022/01/02 12:07:35;;;;;;;12.75;6.30;;;12.30;99.90;;;;;;5008329;28;20081;-73
2022/01/02 12:10:24;;;;;;;11.63;5.72;;;12.30;99.90;;;;;;5007213;28;20056;-72
2022/01/02 12:13:13;;;;;;;12.60;6.10;;;12.20;99.90;;;;;;5008070;28;20503;-72
2022/01/02 12:15:39;;;;;;;11.43;6.00;;;12.20;99.90;;;;;;5005936;28;20054;-72
2022/01/02 12:18:23;;;;;;;14.80;6.50;;;12.20;99.90;;;;;;5008611;28;20053;-72
2022/01/02 12:20:52;;;;;;;11.10;5.85;;;12.20;99.90;;;;;;5005694;28;20057;-72
2022/01/02 12:26:05;;;;;;;11.27;5.88;;;12.20;99.90;;;;;;5003331;28;20050;-75
2022/01/02 12:28:57;;;;;;;10.20;6.05;;;12.20;99.90;;;;;;5007163;28;20045;-71
2022/01/02 12:31:29;;;;;;;12.98;6.40;;;12.20;99.90;;;;;;5004180;28;20080;-72
2022/01/02 12:34:01;;;;;;;16.10;6.78;;;12.20;99.90;;;;;;5004957;28;20149;-72
2022/01/02 12:36:27;;;;;;;12.00;6.07;;;12.20;99.90;;;;;;5007472;28;20516;-73
2022/01/02 12:38:55;;;;;;;12.38;6.38;;;12.20;99.90;;;;;;5020725;28;20053;-71
2022/01/02 12:41:23;;;;;;;13.73;6.05;;;12.20;99.90;;;;;;5005123;28;20050;-73
2022/01/02 12:44:00;;;;;;;12.88;5.93;;;12.20;99.90;;;;;;5006155;28;20057;-72
2022/01/02 12:46:53;;;;;;;11.85;5.82;;;12.20;99.90;;;;;;5005805;28;20046;-70
2022/01/02 12:49:28;;;;;;;13.43;5.70;;;12.20;99.90;;;;;;5001313;28;20065;-72
2022/01/02 12:51:59;;;;;;;11.23;6.15;;;12.20;99.90;;;;;;5005485;28;20046;-71
2022/01/02 12:54:27;;;;;;;12.65;5.35;;;12.20;99.90;;;;;;5006659;28;20089;-71
2022/01/02 12:56:55;;;;;;;12.55;5.43;;;12.20;99.90;;;;;;5007246;28;20185;-71